createdAt,value
2019-04-25T00:02:06.317Z,3.00
2019-04-25T00:04:36.931Z,2.50
2019-04-25T00:07:06.251Z,2.60
2019-04-25T00:09:42.760Z,2.53
2019-04-25T00:12:13.736Z,2.60
2019-04-25T00:14:43.768Z,2.93
2019-04-25T00:17:13.479Z,2.77
2019-04-25T00:19:43.351Z,3.30
2019-04-25T00:22:32.000Z,3.10
2019-04-25T00:25:41.515Z,3.03
2019-04-25T00:28:11.631Z,3.50
2019-04-25T00:30:43.296Z,3.40
2019-04-25T00:33:11.882Z,3.37
2019-04-25T00:35:42.527Z,3.40
2019-04-25T00:38:12.256Z,3.63
2019-04-25T00:40:42.741Z,3.53
2019-04-25T00:43:12.551Z,3.80
2019-04-25T00:45:43.609Z,3.63
2019-04-25T00:48:12.587Z,3.43
2019-04-25T00:50:43.292Z,3.53
2019-04-25T00:53:12.712Z,3.57
2019-04-25T00:55:43.049Z,3.90
2019-04-25T00:58:19.073Z,3.40
2019-04-25T01:01:06.471Z,3.30
2019-04-25T01:03:36.308Z,3.80
2019-04-25T01:06:05.680Z,3.60
2019-04-25T01:08:34.907Z,3.27
2019-04-25T01:11:04.399Z,3.70
2019-04-25T01:13:33.952Z,2.93
2019-04-25T01:16:04.133Z,3.40
2019-04-25T01:18:33.874Z,3.20
2019-04-25T01:21:05.201Z,3.40
2019-04-25T01:23:34.838Z,3.30
2019-04-25T01:26:04.071Z,3.43
2019-04-25T01:28:33.883Z,3.30
2019-04-25T01:31:05.737Z,3.03
2019-04-25T01:33:35.344Z,3.50
2019-04-25T01:36:13.309Z,2.97
2019-04-25T01:38:53.631Z,3.30
2019-04-25T01:41:54.978Z,3.60
2019-04-25T01:44:31.759Z,3.60
2019-04-25T01:47:01.376Z,3.30
2019-04-25T01:49:31.178Z,3.47
2019-04-25T01:52:00.413Z,3.30
2019-04-25T01:54:29.904Z,3.77
2019-04-25T01:56:59.711Z,3.30
2019-04-25T01:59:29.200Z,3.17
2019-04-25T02:01:58.845Z,3.40
2019-04-25T02:04:28.154Z,3.17
2019-04-25T02:06:57.613Z,3.13
2019-04-25T02:09:26.859Z,3.27
2019-04-25T02:12:24.778Z,3.07
2019-04-25T02:14:54.753Z,2.90
2019-04-25T02:17:25.353Z,2.80
2019-04-25T02:19:56.441Z,2.70
2019-04-25T02:22:25.562Z,2.70
2019-04-25T02:24:55.871Z,3.00
2019-04-25T02:27:25.500Z,2.80
2019-04-25T02:29:55.975Z,2.97
2019-04-25T02:32:26.047Z,3.07
2019-04-25T02:34:59.612Z,2.80
2019-04-25T02:37:26.461Z,3.17
2019-04-25T02:39:58.434Z,2.63
2019-04-25T02:42:26.616Z,2.70
2019-04-25T02:45:16.126Z,3.17
2019-04-25T02:48:16.265Z,2.53
2019-04-25T02:51:06.171Z,2.47
2019-04-25T02:53:37.628Z,2.87
2019-04-25T02:56:26.147Z,2.90
2019-04-25T02:58:38.317Z,2.33
2019-04-25T03:01:18.029Z,2.40
2019-04-25T03:03:41.660Z,2.60
2019-04-25T03:06:10.853Z,2.67
2019-04-25T03:08:40.034Z,2.60
2019-04-25T03:11:09.411Z,2.43
2019-04-25T03:13:38.861Z,2.20
2019-04-25T03:16:10.785Z,2.20
2019-04-25T03:18:48.627Z,2.30
2019-04-25T03:21:24.950Z,2.40
2019-04-25T03:23:55.104Z,2.20
2019-04-25T03:26:24.782Z,2.13
2019-04-25T03:28:54.389Z,2.20
2019-04-25T03:31:27.010Z,1.90
2019-04-25T03:33:55.826Z,2.30
2019-04-25T03:36:25.354Z,2.00
2019-04-25T03:38:54.873Z,2.10
2019-04-25T03:41:24.607Z,2.00
2019-04-25T03:43:54.546Z,2.27
2019-04-25T03:46:23.840Z,2.07
2019-04-25T03:48:53.969Z,1.70
2019-04-25T03:51:24.047Z,2.00
2019-04-25T03:53:53.646Z,1.87
2019-04-25T03:56:22.934Z,2.10
2019-04-25T03:58:53.968Z,2.27
2019-04-25T04:01:24.259Z,2.10
2019-04-25T04:03:54.232Z,1.90
2019-04-25T04:06:24.116Z,2.23
2019-04-25T04:08:53.920Z,1.70
2019-04-25T04:11:23.821Z,2.00
2019-04-25T04:13:53.545Z,2.03
2019-04-25T04:16:27.894Z,1.93
2019-04-25T04:18:57.862Z,2.07
2019-04-25T04:21:45.272Z,1.70
2019-04-25T04:24:27.164Z,1.83
2019-04-25T04:27:10.803Z,1.70
2019-04-25T04:29:40.334Z,1.77
2019-04-25T04:32:10.490Z,1.90
2019-04-25T04:34:40.226Z,1.70
2019-04-25T04:37:09.758Z,1.53
2019-04-25T04:39:38.963Z,1.93
2019-04-25T04:42:08.435Z,1.83
2019-04-25T04:44:37.980Z,1.90
2019-04-25T04:47:08.464Z,1.90
2019-04-25T04:49:37.892Z,1.70
2019-04-25T04:52:07.052Z,1.87
2019-04-25T04:54:36.230Z,1.73
2019-04-25T04:57:18.719Z,1.67
2019-04-25T04:59:36.990Z,1.77
2019-04-25T05:02:24.475Z,1.80
2019-04-25T05:05:06.138Z,1.90
2019-04-25T05:07:48.386Z,2.03
2019-04-25T05:10:19.047Z,1.90
2019-04-25T05:12:48.914Z,1.80
2019-04-25T05:15:19.106Z,1.93
2019-04-25T05:17:49.042Z,2.17
2019-04-25T05:20:18.900Z,1.87
2019-04-25T05:22:48.445Z,1.67
2019-04-25T05:25:18.065Z,1.70
2019-04-25T05:28:00.073Z,2.00
2019-04-25T05:30:26.519Z,2.00
2019-04-25T05:32:56.115Z,1.80
2019-04-25T05:35:25.666Z,2.03
2019-04-25T05:37:55.260Z,2.00
2019-04-25T05:40:25.374Z,2.03
2019-04-25T05:43:03.306Z,1.70
2019-04-25T05:45:34.072Z,1.60
2019-04-25T05:48:25.062Z,1.80
2019-04-25T05:50:53.834Z,1.90
2019-04-25T05:53:24.158Z,1.60
2019-04-25T05:55:54.361Z,1.80
2019-04-25T05:58:24.830Z,1.70
2019-04-25T06:00:55.526Z,1.70
2019-04-25T06:03:26.040Z,1.97
2019-04-25T06:05:55.552Z,2.00
2019-04-25T06:08:26.803Z,1.70
2019-04-25T06:11:03.830Z,1.57
2019-04-25T06:13:53.182Z,2.20
2019-04-25T06:16:36.224Z,1.80
2019-04-25T06:19:16.424Z,1.80
2019-04-25T06:21:43.592Z,2.13
2019-04-25T06:24:18.926Z,1.97
2019-04-25T06:27:07.341Z,1.80
2019-04-25T06:29:36.843Z,1.73
2019-04-25T06:32:08.511Z,1.40
2019-04-25T06:34:37.339Z,1.83
2019-04-25T06:37:06.767Z,1.43
2019-04-25T06:39:36.047Z,1.50
2019-04-25T06:42:05.230Z,2.30
2019-04-25T06:44:43.618Z,1.90
2019-04-25T06:47:34.772Z,2.17
2019-04-25T06:50:04.364Z,1.93
2019-04-25T06:52:35.305Z,1.87
2019-04-25T06:55:06.098Z,1.73
2019-04-25T06:57:35.355Z,2.23
2019-04-25T07:00:05.615Z,2.00
2019-04-25T07:02:35.215Z,1.60
2019-04-25T07:05:05.271Z,1.90
2019-04-25T07:07:35.190Z,1.80
2019-04-25T07:10:04.844Z,1.97
2019-04-25T07:12:34.856Z,1.97
2019-04-25T07:15:06.710Z,1.60
2019-04-25T07:17:36.230Z,1.80
2019-04-25T07:20:08.671Z,1.70
2019-04-25T07:22:38.101Z,1.87
2019-04-25T07:25:10.269Z,1.90
2019-04-25T07:28:07.215Z,1.87
2019-04-25T07:30:58.666Z,1.70
2019-04-25T07:33:43.347Z,1.67
2019-04-25T07:36:13.839Z,1.80
2019-04-25T07:38:43.563Z,1.50
2019-04-25T07:41:14.757Z,1.50
2019-04-25T07:43:44.414Z,1.70
2019-04-25T07:46:13.798Z,1.47
2019-04-25T07:48:43.820Z,1.90
2019-04-25T07:51:16.338Z,1.70
2019-04-25T07:53:44.340Z,1.70
2019-04-25T07:56:14.244Z,1.70
2019-04-25T07:58:50.445Z,1.70
2019-04-25T08:01:16.086Z,1.50
2019-04-25T08:03:45.570Z,1.70
2019-04-25T08:06:14.727Z,1.80
2019-04-25T08:08:44.177Z,1.73
2019-04-25T08:11:14.094Z,1.87
2019-04-25T08:14:03.331Z,1.30
2019-04-25T08:16:34.802Z,1.77
2019-04-25T08:19:05.320Z,1.70
2019-04-25T08:21:35.673Z,1.67
2019-04-25T08:24:06.048Z,1.60
2019-04-25T08:26:36.430Z,1.63
2019-04-25T08:29:06.882Z,1.60
2019-04-25T08:31:36.641Z,2.13
2019-04-25T08:34:06.870Z,1.70
2019-04-25T08:36:38.013Z,1.60
2019-04-25T08:39:09.740Z,1.70
2019-04-25T08:41:38.944Z,1.57
2019-04-25T08:44:08.628Z,1.40
2019-04-25T08:46:39.355Z,1.47
2019-04-25T08:49:23.957Z,1.60
2019-04-25T08:51:55.527Z,1.73
2019-04-25T08:54:50.104Z,1.37
2019-04-25T08:57:38.306Z,2.13
2019-04-25T09:00:20.042Z,1.63
2019-04-25T09:02:59.638Z,1.50
2019-04-25T09:05:37.798Z,1.80
2019-04-25T09:08:08.063Z,1.60
2019-04-25T09:10:38.965Z,1.50
2019-04-25T09:13:09.005Z,1.30
2019-04-25T09:15:39.264Z,1.63
2019-04-25T09:18:08.995Z,1.50
2019-04-25T09:20:40.836Z,1.60
2019-04-25T09:23:09.414Z,1.60
2019-04-25T09:25:38.865Z,1.90
2019-04-25T09:28:08.343Z,1.40
2019-04-25T09:30:38.377Z,1.73
2019-04-25T09:33:08.066Z,1.80
2019-04-25T09:35:38.125Z,1.60
2019-04-25T09:38:07.535Z,1.50
2019-04-25T09:40:37.436Z,1.40
2019-04-25T09:43:06.719Z,1.60
2019-04-25T09:45:54.990Z,1.43
2019-04-25T09:48:44.616Z,1.40
2019-04-25T09:51:30.219Z,1.50
2019-04-25T09:54:21.528Z,1.50
2019-04-25T09:56:55.301Z,1.47
2019-04-25T09:59:28.127Z,1.60
2019-04-25T10:01:56.320Z,1.43
2019-04-25T10:04:26.117Z,1.60
2019-04-25T10:06:55.607Z,1.60
2019-04-25T10:09:25.202Z,1.60
2019-04-25T10:11:54.807Z,1.43
2019-04-25T10:14:53.984Z,1.73
2019-04-25T10:17:24.082Z,1.53
2019-04-25T10:19:53.259Z,1.83
2019-04-25T10:22:23.712Z,1.40
2019-04-25T10:25:00.401Z,1.37
2019-04-25T10:27:24.263Z,1.53
2019-04-25T10:29:56.941Z,1.60
2019-04-25T10:32:24.492Z,1.60
2019-04-25T10:34:53.723Z,1.63
2019-04-25T10:37:22.934Z,1.67
2019-04-25T10:39:55.499Z,1.63
2019-04-25T10:42:24.015Z,1.37
2019-04-25T10:44:54.487Z,1.50
2019-04-25T10:47:24.809Z,1.40
2019-04-25T10:49:55.462Z,1.43
2019-04-25T10:52:24.778Z,1.50
2019-04-25T10:54:54.401Z,1.60
2019-04-25T10:57:26.140Z,1.40
2019-04-25T11:00:06.134Z,1.40
2019-04-25T11:02:26.679Z,1.27
2019-04-25T11:05:01.286Z,1.30
2019-04-25T11:07:30.787Z,1.33
2019-04-25T11:09:59.969Z,1.50
2019-04-25T11:12:29.463Z,1.40
2019-04-25T11:14:58.637Z,1.50
2019-04-25T11:17:27.929Z,1.90
2019-04-25T11:19:57.124Z,1.20
2019-04-25T11:22:26.434Z,1.47
2019-04-25T11:24:55.610Z,1.33
2019-04-25T11:27:25.219Z,1.30
2019-04-25T11:30:08.262Z,1.23
2019-04-25T11:32:27.552Z,1.40
2019-04-25T11:34:57.348Z,1.27
2019-04-25T11:37:29.575Z,1.20
2019-04-25T11:40:08.000Z,1.10
2019-04-25T11:42:37.593Z,1.30
2019-04-25T11:45:08.820Z,1.20
2019-04-25T11:47:38.072Z,1.47
2019-04-25T11:50:08.263Z,1.30
2019-04-25T11:52:37.768Z,1.30
2019-04-25T11:55:08.600Z,1.87
2019-04-25T11:57:37.912Z,1.53
2019-04-25T12:00:07.734Z,1.20
2019-04-25T12:02:37.004Z,1.30
2019-04-25T12:05:06.327Z,1.20
2019-04-25T12:07:35.658Z,1.37
2019-04-25T12:10:06.424Z,1.73
2019-04-25T12:12:37.265Z,1.30
2019-04-25T12:15:06.605Z,1.60
2019-04-25T12:17:35.876Z,1.30
2019-04-25T12:20:05.828Z,1.20
2019-04-25T12:22:35.267Z,1.20
2019-04-25T12:25:08.033Z,1.10
2019-04-25T12:27:37.227Z,1.70
2019-04-25T12:30:07.676Z,1.47
2019-04-25T12:32:37.300Z,2.10
2019-04-25T12:35:07.340Z,1.50
2019-04-25T12:37:36.892Z,1.83
2019-04-25T12:40:07.240Z,1.47
2019-04-25T12:42:36.734Z,1.33
2019-04-25T12:45:14.139Z,1.30
2019-04-25T12:47:45.299Z,1.10
2019-04-25T12:50:18.595Z,1.13
2019-04-25T12:52:47.071Z,1.13
2019-04-25T12:55:17.198Z,1.10
2019-04-25T12:57:47.255Z,1.03
2019-04-25T13:00:22.065Z,1.10
2019-04-25T13:02:51.674Z,1.17
2019-04-25T13:05:21.943Z,1.50
2019-04-25T13:07:51.477Z,1.03
2019-04-25T13:10:23.668Z,1.27
2019-04-25T13:12:55.282Z,1.13
2019-04-25T13:15:25.755Z,1.33
2019-04-25T13:17:55.698Z,1.20
2019-04-25T13:20:25.217Z,1.43
2019-04-25T13:22:55.754Z,1.57
2019-04-25T13:25:25.104Z,1.30
2019-04-25T13:28:16.175Z,1.43
2019-04-25T13:31:03.972Z,1.30
2019-04-25T13:33:44.549Z,1.30
2019-04-25T13:36:15.418Z,1.57
2019-04-25T13:38:45.320Z,1.50
2019-04-25T13:41:14.795Z,1.57
2019-04-25T13:43:44.249Z,1.77
2019-04-25T13:46:18.528Z,1.73
2019-04-25T13:48:44.435Z,1.83
2019-04-25T13:51:14.209Z,1.63
2019-04-25T13:53:43.565Z,1.57
2019-04-25T13:56:13.394Z,2.00
2019-04-25T13:58:44.307Z,1.70
2019-04-25T14:01:17.288Z,1.90
2019-04-25T14:03:46.395Z,2.00
2019-04-25T14:06:15.649Z,2.00
2019-04-25T14:08:44.863Z,2.47
2019-04-25T14:11:14.467Z,1.70
2019-04-25T14:13:43.727Z,2.00
2019-04-25T14:16:35.065Z,1.80
2019-04-25T14:19:29.755Z,4.47
2019-04-25T14:22:00.759Z,2.60
2019-04-25T14:24:32.015Z,2.67
2019-04-25T14:27:01.560Z,1.70
2019-04-25T14:29:31.121Z,1.60
2019-04-25T14:32:00.355Z,1.47
2019-04-25T14:34:29.905Z,1.60
2019-04-25T14:36:59.471Z,1.57
2019-04-25T14:39:29.531Z,1.50
2019-04-25T14:41:59.053Z,1.60
2019-04-25T14:44:28.611Z,1.60
2019-04-25T14:46:57.920Z,1.57
2019-04-25T14:49:27.127Z,1.80
2019-04-25T14:51:56.362Z,1.60
2019-04-25T14:54:50.373Z,2.43
2019-04-25T14:57:26.113Z,2.27
2019-04-25T14:59:55.707Z,1.80
2019-04-25T15:02:26.493Z,1.70
2019-04-25T15:04:55.999Z,1.63
2019-04-25T15:07:25.326Z,1.50
2019-04-25T15:09:54.726Z,1.20
2019-04-25T15:12:24.754Z,2.23
2019-04-25T15:14:53.995Z,2.30
2019-04-25T15:17:23.754Z,1.20
2019-04-25T15:19:53.031Z,1.60
2019-04-25T15:22:23.217Z,2.17
2019-04-25T15:24:53.443Z,1.57
2019-04-25T15:27:22.711Z,1.30
2019-04-25T15:29:52.446Z,1.30
2019-04-25T15:32:24.077Z,1.30
2019-04-25T15:34:57.272Z,1.40
2019-04-25T15:37:35.166Z,1.10
2019-04-25T15:40:32.353Z,1.20
2019-04-25T15:43:20.617Z,1.30
2019-04-25T15:46:04.113Z,1.10
2019-04-25T15:48:33.336Z,1.00
2019-04-25T15:51:02.502Z,0.90
2019-04-25T15:53:32.048Z,1.00
2019-04-25T15:56:01.493Z,1.23
2019-04-25T15:58:30.752Z,1.20
2019-04-25T16:01:00.203Z,1.10
2019-04-25T16:03:29.498Z,1.00
2019-04-25T16:05:59.184Z,0.93
2019-04-25T16:08:28.808Z,1.07
2019-04-25T16:10:58.140Z,1.00
2019-04-25T16:13:28.240Z,0.90
2019-04-25T16:15:57.610Z,0.90
2019-04-25T16:18:27.317Z,0.87
2019-04-25T16:20:57.271Z,1.10
2019-04-25T16:23:26.664Z,1.00
2019-04-25T16:25:56.627Z,1.03
2019-04-25T16:28:26.547Z,1.03
2019-04-25T16:30:56.804Z,1.13
2019-04-25T16:33:26.056Z,1.20
2019-04-25T16:35:55.220Z,1.00
2019-04-25T16:38:24.970Z,1.00
2019-04-25T16:40:54.248Z,1.00
2019-04-25T16:43:26.247Z,1.20
2019-04-25T16:45:55.756Z,1.23
2019-04-25T16:48:25.061Z,1.10
2019-04-25T16:50:54.251Z,1.00
2019-04-25T16:53:24.105Z,1.10
2019-04-25T16:55:53.335Z,1.10
2019-04-25T16:58:23.430Z,1.03
2019-04-25T17:00:58.207Z,1.00
2019-04-25T17:03:28.980Z,1.00
2019-04-25T17:05:59.314Z,1.00
2019-04-25T17:08:28.574Z,1.20
2019-04-25T17:10:57.968Z,1.13
2019-04-25T17:13:29.473Z,1.13
2019-04-25T17:16:17.914Z,1.30
2019-04-25T17:18:52.282Z,1.33
2019-04-25T17:21:21.867Z,1.20
2019-04-25T17:23:51.274Z,1.10
2019-04-25T17:26:22.010Z,1.10
2019-04-25T17:28:52.925Z,1.20
2019-04-25T17:31:34.989Z,1.30
2019-04-25T17:34:15.991Z,1.20
2019-04-25T17:36:54.861Z,1.30
2019-04-25T17:39:37.507Z,1.40
2019-04-25T17:42:06.758Z,1.40
2019-04-25T17:44:36.569Z,1.20
2019-04-25T17:47:06.698Z,1.00
2019-04-25T17:49:36.799Z,1.20
2019-04-25T17:52:06.095Z,1.10
2019-04-25T17:54:36.395Z,1.23
2019-04-25T17:57:06.737Z,0.97
2019-04-25T17:59:36.906Z,1.70
2019-04-25T18:02:06.655Z,1.20
2019-04-25T18:04:36.205Z,1.50
2019-04-25T18:07:05.579Z,1.40
2019-04-25T18:09:35.540Z,1.17
2019-04-25T18:12:05.463Z,1.17
2019-04-25T18:14:35.257Z,1.60
2019-04-25T18:17:04.952Z,1.70
2019-04-25T18:19:53.153Z,1.30
2019-04-25T18:22:47.456Z,1.50
2019-04-25T18:25:25.936Z,1.83
2019-04-25T18:28:20.049Z,2.53
2019-04-25T18:30:49.779Z,2.47
2019-04-25T18:33:29.920Z,2.00
2019-04-25T18:36:18.467Z,1.73
2019-04-25T18:39:05.194Z,1.50
2019-04-25T18:41:39.782Z,1.50
2019-04-25T18:44:09.356Z,1.53
2019-04-25T18:46:42.488Z,1.73
2019-04-25T18:49:11.948Z,2.80
2019-04-25T18:51:41.281Z,1.50
2019-04-25T18:54:30.580Z,1.30
2019-04-25T18:57:10.302Z,1.00
2019-04-25T19:00:07.670Z,1.10
2019-04-25T19:02:49.012Z,1.20
2019-04-25T19:05:40.974Z,1.10
2019-04-25T19:08:10.849Z,1.10
2019-04-25T19:10:40.777Z,1.00
2019-04-25T19:13:12.818Z,1.20
2019-04-25T19:15:41.273Z,1.03
2019-04-25T19:18:10.563Z,1.10
2019-04-25T19:20:40.122Z,1.17
2019-04-25T19:23:09.374Z,1.20
2019-04-25T19:25:40.151Z,1.50
2019-04-25T19:28:09.583Z,1.30
2019-04-25T19:30:39.752Z,1.30
2019-04-25T19:33:09.358Z,1.50
2019-04-25T19:35:39.527Z,1.20
2019-04-25T19:38:09.668Z,1.40
2019-04-25T19:40:57.982Z,1.37
2019-04-25T19:43:31.271Z,1.33
2019-04-25T19:46:00.600Z,1.30
2019-04-25T19:48:30.263Z,1.50
2019-04-25T19:50:59.458Z,1.33
2019-04-25T19:53:28.720Z,1.43
2019-04-25T19:55:57.953Z,1.50
2019-04-25T19:58:27.241Z,1.67
2019-04-25T20:00:57.010Z,1.60
2019-04-25T20:03:47.295Z,1.70
2019-04-25T20:06:15.742Z,1.80
2019-04-25T20:08:58.580Z,1.53
2019-04-25T20:11:40.728Z,1.70
2019-04-25T20:14:10.073Z,1.80
2019-04-25T20:16:46.036Z,1.90
2019-04-25T20:19:15.473Z,2.00
2019-04-25T20:21:45.729Z,2.30
2019-04-25T20:24:15.083Z,2.50
2019-04-25T20:26:45.012Z,2.60
2019-04-25T20:29:15.302Z,2.43
2019-04-25T20:31:45.293Z,2.50
2019-04-25T20:34:14.592Z,2.43
2019-04-25T20:36:44.661Z,2.50
2019-04-25T20:39:14.849Z,2.83
2019-04-25T20:41:44.129Z,2.63
2019-04-25T20:44:13.438Z,2.60
2019-04-25T20:46:43.185Z,2.17
2019-04-25T20:49:12.707Z,2.20
2019-04-25T20:51:43.894Z,2.60
2019-04-25T20:54:13.105Z,2.70
2019-04-25T20:56:42.610Z,2.27
2019-04-25T20:59:11.739Z,2.37
2019-04-25T21:01:40.966Z,2.20
2019-04-25T21:04:29.443Z,2.17
2019-04-25T21:06:59.398Z,2.03
2019-04-25T21:09:28.701Z,2.23
2019-04-25T21:11:58.211Z,2.10
2019-04-25T21:14:35.213Z,2.00
2019-04-25T21:17:10.392Z,2.37
2019-04-25T21:19:42.706Z,2.10
2019-04-25T21:22:11.887Z,2.30
2019-04-25T21:24:41.505Z,2.17
2019-04-25T21:27:10.907Z,2.30
2019-04-25T21:29:40.157Z,2.00
2019-04-25T21:32:09.479Z,2.17
2019-04-25T21:34:38.675Z,2.23
2019-04-25T21:37:08.111Z,2.13
2019-04-25T21:39:51.268Z,2.30
2019-04-25T21:42:42.979Z,2.20
2019-04-25T21:45:12.527Z,2.70
2019-04-25T21:47:42.272Z,2.70
2019-04-25T21:50:11.808Z,2.70
2019-04-25T21:52:41.816Z,2.80
2019-04-25T21:55:11.539Z,2.60
2019-04-25T21:57:41.071Z,2.67
2019-04-25T22:00:13.699Z,2.73
2019-04-25T22:02:43.410Z,2.80
2019-04-25T22:05:12.946Z,2.67
2019-04-25T22:07:42.691Z,2.90
2019-04-25T22:10:12.318Z,2.70
2019-04-25T22:12:41.550Z,2.57
2019-04-25T22:15:13.122Z,2.73
2019-04-25T22:17:42.360Z,2.30
2019-04-25T22:20:11.796Z,2.63
2019-04-25T22:22:41.403Z,2.70
2019-04-25T22:25:10.586Z,2.67
2019-04-25T22:27:40.110Z,2.60
2019-04-25T22:30:11.287Z,2.73
2019-04-25T22:32:51.182Z,2.80
2019-04-25T22:35:45.969Z,2.90
2019-04-25T22:38:15.586Z,3.10
2019-04-25T22:40:44.822Z,2.70
2019-04-25T22:43:14.972Z,3.03
2019-04-25T22:45:44.904Z,3.30
2019-04-25T22:48:15.809Z,3.20
2019-04-25T22:50:45.343Z,2.93
2019-04-25T22:53:22.577Z,2.70
2019-04-25T22:55:45.910Z,3.10
2019-04-25T22:58:15.067Z,3.20
2019-04-25T23:00:44.745Z,3.40
2019-04-25T23:03:20.238Z,2.70
2019-04-25T23:05:53.077Z,3.30
2019-04-25T23:08:22.997Z,3.17
2019-04-25T23:10:52.603Z,3.03
2019-04-25T23:13:22.196Z,3.13
2019-04-25T23:15:51.818Z,2.60
2019-04-25T23:18:21.362Z,2.70
2019-04-25T23:20:50.803Z,3.13
2019-04-25T23:23:20.275Z,3.00
2019-04-25T23:26:07.908Z,3.07
2019-04-25T23:28:39.882Z,2.97
2019-04-25T23:31:19.446Z,2.93
2019-04-25T23:33:48.983Z,3.00
2019-04-25T23:36:18.566Z,3.10
2019-04-25T23:38:48.078Z,3.30
2019-04-25T23:41:17.631Z,3.27
2019-04-25T23:43:46.845Z,3.20
2019-04-25T23:46:16.313Z,3.10
2019-04-25T23:48:45.621Z,3.03
2019-04-25T23:51:15.425Z,3.03
2019-04-25T23:53:44.898Z,2.83
2019-04-25T23:56:15.170Z,2.83
2019-04-25T23:58:44.783Z,3.20
